0FD9 weather

Joy Farms Airport
Defuniak Springs, Florida, United States

Public forecast

Using degrees Fahrenheit for public forecast. Weather courtesy of forecast.io.

METAR (pilot weather report)

Closest report is Defuniak Springs Airport, 5.2 nm (9.7 km) NNW. Retrieved 2018/09/21 18:55 UTC (14 minutes ago):

K54J 211855Z AUTO 11005KT 10SM SCT040 SCT046 SCT055 31/22 A3006 RMK AO2 T03050217

TAF (pilot weather forecast)

Forecast is more than 6 hours old.

Closest forecast is Duke Field, 21.4 nm (39.6 km) W. Retrieved 2018/09/21 09:07 UTC (10 hours ago):

TAF KEGI 210900Z 2109/2215 16003KT 9999 SCT020 QNH3002INS BECMG 2115/2116 09006KT 9999 SCT030 SCT250 QNH3000INS TEMPO 2119/2123 17010G15KT 9000 -SHRA VCTS SCT025CB BKN250 BECMG 2122/2123 14009KT 9999 SCT030 SCT250 QNH2998INS BECMG 2203/2204 13003KT 9999 FEW015 FEW050 QNH3006INS TX33/2116Z TN21/2111Z LAST NO AMDS AFT 2109 NEXT 2113